createdAt,value
2018-07-03T00:00:18.935Z,0.60
2018-07-03T00:02:47.284Z,0.62
2018-07-03T00:05:15.620Z,0.78
2018-07-03T00:07:43.942Z,0.50
2018-07-03T00:10:12.664Z,0.68
2018-07-03T00:12:41.126Z,0.88
2018-07-03T00:15:09.514Z,0.60
2018-07-03T00:17:37.852Z,0.60
2018-07-03T00:20:07.273Z,0.68
2018-07-03T00:22:35.610Z,0.40
2018-07-03T00:25:04.036Z,0.50
2018-07-03T00:27:32.394Z,0.40
2018-07-03T00:30:00.746Z,0.40
2018-07-03T00:32:29.129Z,0.37
2018-07-03T00:34:57.458Z,0.60
2018-07-03T00:37:25.825Z,0.50
2018-07-03T00:39:54.184Z,1.10
2018-07-03T00:42:23.295Z,0.60
2018-07-03T00:44:51.656Z,0.45
2018-07-03T00:47:20.092Z,0.90
2018-07-03T00:49:48.497Z,0.33
2018-07-03T00:52:16.892Z,0.70
2018-07-03T00:54:45.220Z,0.57
2018-07-03T00:57:13.649Z,0.87
2018-07-03T00:59:53.540Z,0.60
2018-07-03T01:02:21.917Z,0.85
2018-07-03T01:04:50.766Z,0.55
2018-07-03T01:07:19.136Z,0.60
2018-07-03T01:09:47.941Z,0.40
2018-07-03T01:12:16.320Z,0.65
2018-07-03T01:14:44.645Z,0.70
2018-07-03T01:17:13.040Z,0.45
2018-07-03T01:19:41.381Z,0.75
2018-07-03T01:22:09.760Z,0.33
2018-07-03T01:24:38.349Z,0.40
2018-07-03T01:27:06.765Z,0.50
2018-07-03T01:29:35.141Z,0.50
2018-07-03T01:32:03.525Z,0.90
2018-07-03T01:34:31.896Z,0.60
2018-07-03T01:37:00.299Z,0.45
2018-07-03T01:39:28.654Z,0.40
2018-07-03T01:41:57.025Z,0.40
2018-07-03T01:44:25.422Z,0.45
2018-07-03T01:46:53.789Z,0.50
2018-07-03T01:49:22.187Z,0.40
2018-07-03T01:51:50.578Z,0.40
2018-07-03T01:54:18.967Z,0.45
2018-07-03T01:56:47.317Z,0.47
2018-07-03T01:59:15.663Z,0.40
2018-07-03T02:01:44.011Z,0.42
2018-07-03T02:04:13.041Z,0.33
2018-07-03T02:06:41.463Z,0.30
2018-07-03T02:09:12.592Z,0.40
2018-07-03T02:11:41.973Z,0.20
2018-07-03T02:14:10.348Z,0.42
2018-07-03T02:16:38.743Z,0.40
2018-07-03T02:19:07.419Z,0.30
2018-07-03T02:21:35.838Z,0.30
2018-07-03T02:24:04.653Z,0.20
2018-07-03T02:26:33.059Z,0.50
2018-07-03T02:29:01.397Z,0.40
2018-07-03T02:31:29.764Z,0.27
2018-07-03T02:33:58.103Z,0.63
2018-07-03T02:36:26.474Z,0.65
2018-07-03T02:38:55.167Z,0.60
2018-07-03T02:41:23.734Z,0.40
2018-07-03T02:43:53.033Z,0.30
2018-07-03T02:46:21.390Z,0.50
2018-07-03T02:48:49.573Z,0.37
2018-07-03T02:51:17.929Z,0.47
2018-07-03T02:53:46.327Z,0.20
2018-07-03T02:56:14.703Z,0.30
2018-07-03T02:58:43.082Z,0.30
2018-07-03T03:01:11.431Z,0.40
2018-07-03T03:03:39.802Z,0.40
2018-07-03T03:06:08.144Z,0.30
2018-07-03T03:08:36.521Z,0.20
2018-07-03T03:11:04.888Z,0.40
2018-07-03T03:13:33.265Z,0.30
2018-07-03T03:16:01.648Z,0.40
2018-07-03T03:18:30.050Z,0.40
2018-07-03T03:20:58.415Z,0.40
2018-07-03T03:23:26.821Z,0.30
2018-07-03T03:25:56.106Z,0.40
2018-07-03T03:28:24.469Z,0.90
2018-07-03T03:30:52.877Z,0.50
2018-07-03T03:33:21.227Z,0.50
2018-07-03T03:35:49.672Z,0.40
2018-07-03T03:38:18.036Z,0.60
2018-07-03T03:40:46.406Z,0.40
2018-07-03T03:43:14.784Z,0.40
2018-07-03T03:45:43.143Z,0.40
2018-07-03T03:48:11.540Z,0.50
2018-07-03T03:50:39.904Z,0.30
2018-07-03T03:53:08.258Z,0.30
2018-07-03T03:55:37.360Z,0.87
2018-07-03T03:58:05.755Z,0.50
2018-07-03T04:00:33.859Z,0.30
2018-07-03T04:03:02.322Z,0.50
2018-07-03T04:05:30.700Z,0.50
2018-07-03T04:07:59.107Z,0.47
2018-07-03T04:10:27.478Z,0.60
2018-07-03T04:12:55.941Z,0.47
2018-07-03T04:15:24.320Z,0.40
2018-07-03T04:17:52.667Z,0.27
2018-07-03T04:20:21.018Z,0.40
2018-07-03T04:22:50.215Z,0.30
2018-07-03T04:25:18.697Z,0.43
2018-07-03T04:27:47.065Z,0.43
2018-07-03T04:30:15.428Z,0.50
2018-07-03T04:32:43.810Z,0.80
2018-07-03T04:35:12.184Z,0.70
2018-07-03T04:37:40.540Z,0.45
2018-07-03T04:40:08.943Z,0.80
2018-07-03T04:42:37.331Z,1.22
2018-07-03T04:45:05.757Z,0.70
2018-07-03T04:47:34.140Z,0.88
2018-07-03T04:50:02.541Z,0.57
2018-07-03T04:52:30.933Z,0.50
2018-07-03T04:54:59.496Z,0.63
2018-07-03T04:57:27.945Z,0.40
2018-07-03T04:59:56.341Z,0.50
2018-07-03T05:02:24.709Z,0.82
2018-07-03T05:04:53.165Z,0.50
2018-07-03T05:07:21.608Z,0.50
2018-07-03T05:09:50.031Z,0.50
2018-07-03T05:12:18.419Z,0.60
2018-07-03T05:14:46.801Z,0.60
2018-07-03T05:17:15.186Z,0.23
2018-07-03T05:19:43.562Z,0.53
2018-07-03T05:22:11.974Z,0.42
2018-07-03T05:24:40.401Z,0.37
2018-07-03T05:27:08.848Z,0.72
2018-07-03T05:29:37.247Z,0.50
2018-07-03T05:32:05.685Z,1.07
2018-07-03T05:34:34.068Z,0.40
2018-07-03T05:37:02.455Z,0.40
2018-07-03T05:39:30.821Z,0.55
2018-07-03T05:41:59.503Z,0.40
2018-07-03T05:44:27.913Z,0.30
2018-07-03T05:46:56.262Z,0.50
2018-07-03T05:49:24.631Z,0.40
2018-07-03T05:51:53.034Z,0.40
2018-07-03T05:54:21.456Z,0.42
2018-07-03T05:56:49.866Z,0.45
2018-07-03T05:59:18.223Z,0.68
2018-07-03T06:01:46.591Z,0.20
2018-07-03T06:04:15.009Z,0.20
2018-07-03T06:06:43.527Z,0.40
2018-07-03T06:09:12.002Z,0.75
2018-07-03T06:11:43.326Z,0.50
2018-07-03T06:14:11.756Z,0.50
2018-07-03T06:16:40.121Z,0.40
2018-07-03T06:19:09.456Z,0.40
2018-07-03T06:21:37.856Z,0.50
2018-07-03T06:24:06.324Z,0.30
2018-07-03T06:26:34.731Z,0.60
2018-07-03T06:29:03.233Z,0.40
2018-07-03T06:31:31.567Z,0.40
2018-07-03T06:34:00.115Z,0.50
2018-07-03T06:36:28.493Z,0.40
2018-07-03T06:38:56.873Z,0.50
2018-07-03T06:41:25.632Z,0.40
2018-07-03T06:43:54.125Z,1.02
2018-07-03T06:46:22.565Z,0.33
2018-07-03T06:48:50.933Z,0.47
2018-07-03T06:51:19.283Z,0.50
2018-07-03T06:53:47.735Z,0.72
2018-07-03T06:56:16.188Z,0.72
2018-07-03T06:58:44.578Z,0.30
2018-07-03T07:01:12.927Z,0.60
2018-07-03T07:03:41.395Z,0.40
2018-07-03T07:06:09.629Z,0.40
2018-07-03T07:08:38.504Z,0.62
2018-07-03T07:11:06.717Z,0.50
2018-07-03T07:13:35.185Z,0.50
2018-07-03T07:16:03.592Z,0.57
2018-07-03T07:18:32.002Z,0.65
2018-07-03T07:21:00.356Z,0.70
2018-07-03T07:23:28.716Z,0.47
2018-07-03T07:25:57.093Z,1.12
2018-07-03T07:28:25.533Z,0.40
2018-07-03T07:30:53.866Z,0.82
2018-07-03T07:33:22.380Z,0.90
2018-07-03T07:35:51.110Z,0.53
2018-07-03T07:38:19.612Z,0.40
2018-07-03T07:40:48.020Z,0.50
2018-07-03T07:43:17.420Z,0.42
2018-07-03T07:45:45.844Z,0.50
2018-07-03T07:48:14.163Z,1.02
2018-07-03T07:50:42.549Z,0.42
2018-07-03T07:53:11.022Z,0.20
2018-07-03T07:55:39.417Z,0.30
2018-07-03T07:58:07.840Z,0.20
2018-07-03T08:00:36.205Z,0.50
2018-07-03T08:03:04.584Z,0.62
2018-07-03T08:05:33.908Z,0.68
2018-07-03T08:08:02.318Z,0.40
2018-07-03T08:10:30.667Z,0.60
2018-07-03T08:12:59.050Z,0.40
2018-07-03T08:15:28.491Z,0.50
2018-07-03T08:17:56.839Z,0.30
2018-07-03T08:20:25.232Z,0.40
2018-07-03T08:22:53.603Z,0.30
2018-07-03T08:25:22.999Z,0.53
2018-07-03T08:27:51.348Z,0.30
2018-07-03T08:30:19.735Z,3.35
2018-07-03T08:32:48.125Z,0.75
2018-07-03T08:35:16.537Z,0.20
2018-07-03T08:37:44.939Z,0.33
2018-07-03T08:40:13.336Z,0.45
2018-07-03T08:42:41.707Z,0.20
2018-07-03T08:45:10.114Z,0.20
2018-07-03T08:47:38.553Z,0.40
2018-07-03T08:50:06.949Z,0.30
2018-07-03T08:52:35.344Z,0.28
2018-07-03T08:55:03.724Z,0.40
2018-07-03T08:57:32.126Z,0.40
2018-07-03T09:00:00.539Z,0.35
2018-07-03T09:02:28.933Z,0.20
2018-07-03T09:04:57.300Z,0.35
2018-07-03T09:07:25.718Z,0.33
2018-07-03T09:09:54.114Z,0.30
2018-07-03T09:12:22.579Z,0.40
2018-07-03T09:14:50.900Z,0.30
2018-07-03T09:17:24.694Z,0.40
2018-07-03T09:19:53.076Z,0.60
2018-07-03T09:22:21.444Z,0.45
2018-07-03T09:24:49.534Z,0.42
2018-07-03T09:27:17.915Z,0.50
2018-07-03T09:29:46.294Z,0.42
2018-07-03T09:32:14.665Z,0.20
2018-07-03T09:34:43.048Z,0.28
2018-07-03T09:37:11.525Z,0.42
2018-07-03T09:39:39.861Z,0.28
2018-07-03T09:42:08.300Z,0.70
2018-07-03T09:44:36.691Z,0.40
2018-07-03T09:47:05.176Z,0.20
2018-07-03T09:49:33.616Z,0.68
2018-07-03T09:52:02.035Z,0.23
2018-07-03T09:54:30.498Z,0.40
2018-07-03T09:56:58.885Z,0.60
2018-07-03T09:59:27.284Z,0.40
2018-07-03T10:01:55.685Z,0.80
2018-07-03T10:04:24.128Z,0.28
2018-07-03T10:06:52.525Z,0.60
2018-07-03T10:09:20.958Z,0.95
2018-07-03T10:11:49.459Z,0.30
2018-07-03T10:14:17.833Z,0.30
2018-07-03T10:16:46.302Z,0.30
2018-07-03T10:19:14.756Z,0.20
2018-07-03T10:21:43.147Z,0.20
2018-07-03T10:24:11.589Z,0.60
2018-07-03T10:26:39.986Z,0.40
2018-07-03T10:29:08.396Z,0.47
2018-07-03T10:31:36.809Z,0.47
2018-07-03T10:34:05.926Z,0.40
2018-07-03T10:36:34.297Z,0.42
2018-07-03T10:39:02.804Z,0.40
2018-07-03T10:41:31.202Z,0.40
2018-07-03T10:43:59.611Z,0.30
2018-07-03T10:46:27.817Z,0.30
2018-07-03T10:48:56.172Z,0.30
2018-07-03T10:51:24.571Z,0.37
2018-07-03T10:53:52.972Z,0.20
2018-07-03T10:56:21.537Z,0.30
2018-07-03T10:58:50.018Z,0.30
2018-07-03T11:01:18.445Z,0.30
2018-07-03T11:03:46.904Z,0.40
2018-07-03T11:06:16.407Z,0.40
2018-07-03T11:08:44.820Z,0.20
2018-07-03T11:11:13.221Z,0.50
2018-07-03T11:13:41.725Z,0.40
2018-07-03T11:16:10.133Z,0.30
2018-07-03T11:18:38.500Z,0.40
2018-07-03T11:21:07.458Z,0.35
2018-07-03T11:23:36.099Z,0.40
2018-07-03T11:26:05.139Z,0.37
2018-07-03T11:28:40.252Z,0.42
2018-07-03T11:31:08.611Z,0.10
2018-07-03T11:33:37.030Z,0.30
2018-07-03T11:36:05.487Z,0.40
2018-07-03T11:38:33.836Z,0.30
2018-07-03T11:41:02.247Z,0.40
2018-07-03T11:43:30.639Z,0.40
2018-07-03T11:45:59.141Z,0.40
2018-07-03T11:48:27.519Z,0.40
2018-07-03T11:50:56.109Z,0.30
2018-07-03T11:53:24.554Z,0.30
2018-07-03T11:55:52.975Z,0.45
2018-07-03T11:58:21.324Z,0.30
2018-07-03T12:00:49.859Z,0.30
2018-07-03T12:03:18.242Z,0.40
2018-07-03T12:05:46.655Z,0.40
2018-07-03T12:08:16.246Z,0.28
2018-07-03T12:10:44.650Z,0.30
2018-07-03T12:13:13.025Z,0.30
2018-07-03T12:15:41.388Z,0.40
2018-07-03T12:18:14.989Z,0.40
2018-07-03T12:20:43.453Z,0.40
2018-07-03T12:23:11.813Z,0.40
2018-07-03T12:25:40.249Z,0.65
2018-07-03T12:28:08.754Z,0.33
2018-07-03T12:30:37.185Z,0.30
2018-07-03T12:33:05.638Z,0.20
2018-07-03T12:35:35.132Z,0.30
2018-07-03T12:38:03.681Z,0.50
2018-07-03T12:40:32.076Z,0.20
2018-07-03T12:43:02.570Z,0.28
2018-07-03T12:45:31.100Z,0.30
2018-07-03T12:47:59.615Z,0.20
2018-07-03T12:50:28.092Z,0.30
2018-07-03T12:52:56.453Z,0.35
2018-07-03T12:55:24.926Z,0.47
2018-07-03T12:57:53.441Z,0.37
2018-07-03T13:00:21.874Z,0.50
2018-07-03T13:02:50.319Z,0.45
2018-07-03T13:05:18.771Z,0.57
2018-07-03T13:07:47.149Z,0.30
2018-07-03T13:10:15.565Z,0.40
2018-07-03T13:12:43.992Z,0.70
2018-07-03T13:15:12.656Z,0.40
2018-07-03T13:17:41.108Z,0.30
2018-07-03T13:20:09.557Z,0.33
2018-07-03T13:22:37.929Z,0.50
2018-07-03T13:25:08.980Z,0.50
2018-07-03T13:27:37.649Z,0.40
2018-07-03T13:30:06.479Z,0.28
2018-07-03T13:32:34.867Z,0.42
2018-07-03T13:35:03.240Z,0.40
2018-07-03T13:37:31.675Z,0.30
2018-07-03T13:40:00.050Z,0.40
2018-07-03T13:42:28.521Z,0.60
2018-07-03T13:44:56.910Z,0.50
2018-07-03T13:47:25.924Z,0.50
2018-07-03T13:49:54.287Z,0.42
2018-07-03T13:52:22.682Z,0.40
2018-07-03T13:54:51.169Z,0.33
2018-07-03T13:57:19.546Z,0.40
2018-07-03T13:59:47.904Z,0.55
2018-07-03T14:02:16.561Z,0.60
2018-07-03T14:04:44.976Z,0.50
2018-07-03T14:07:13.787Z,0.30
2018-07-03T14:09:42.173Z,0.40
2018-07-03T14:12:10.558Z,0.40
2018-07-03T14:14:38.993Z,0.30
2018-07-03T14:17:07.408Z,0.40
2018-07-03T14:19:35.903Z,0.40
2018-07-03T14:22:04.458Z,0.40
2018-07-03T14:24:32.831Z,0.53
2018-07-03T14:27:01.316Z,0.30
2018-07-03T14:29:29.691Z,0.30
2018-07-03T14:31:58.066Z,0.40
2018-07-03T14:34:27.653Z,0.40
2018-07-03T14:36:56.010Z,0.40
2018-07-03T14:39:24.392Z,0.50
2018-07-03T14:41:52.852Z,0.40
2018-07-03T14:44:21.250Z,0.30
2018-07-03T14:46:49.617Z,0.47
2018-07-03T14:49:17.998Z,0.30
2018-07-03T14:51:49.334Z,0.30
2018-07-03T14:54:17.733Z,0.50
2018-07-03T14:56:46.156Z,0.30
2018-07-03T14:59:14.670Z,0.30
2018-07-03T15:01:43.028Z,0.60
2018-07-03T15:04:11.548Z,0.23
2018-07-03T15:06:40.003Z,0.30
2018-07-03T15:09:10.976Z,0.20
2018-07-03T15:11:39.775Z,0.20
2018-07-03T15:14:08.207Z,0.57
2018-07-03T15:16:37.449Z,0.50
2018-07-03T15:19:11.286Z,0.30
2018-07-03T15:21:39.698Z,0.53
2018-07-03T15:24:08.704Z,0.30
2018-07-03T15:26:38.694Z,0.30
2018-07-03T15:29:07.337Z,0.37
2018-07-03T15:31:35.710Z,0.30
2018-07-03T15:34:04.417Z,0.33
2018-07-03T15:36:32.902Z,0.40
2018-07-03T15:39:01.334Z,0.40
2018-07-03T15:41:29.703Z,0.60
2018-07-03T15:44:09.515Z,0.40
2018-07-03T15:46:37.877Z,0.30
2018-07-03T15:49:06.355Z,0.60
2018-07-03T15:51:34.775Z,0.60
2018-07-03T15:54:03.379Z,0.50
2018-07-03T15:56:32.452Z,1.22
2018-07-03T15:59:01.275Z,0.40
2018-07-03T16:01:29.751Z,0.82
2018-07-03T16:04:10.092Z,0.57
2018-07-03T16:07:07.331Z,1.15
2018-07-03T16:09:36.739Z,1.50
2018-07-03T16:12:05.580Z,0.88
2018-07-03T16:14:33.985Z,0.53
2018-07-03T16:17:02.475Z,0.60
2018-07-03T16:19:35.946Z,1.15
2018-07-03T16:22:04.385Z,0.45
2018-07-03T16:24:32.855Z,0.70
2018-07-03T16:27:01.199Z,0.50
2018-07-03T16:29:29.634Z,0.60
2018-07-03T16:31:58.028Z,0.60
2018-07-03T16:34:26.387Z,0.40
2018-07-03T16:36:54.799Z,0.30
2018-07-03T16:39:23.183Z,0.30
2018-07-03T16:41:52.024Z,0.40
2018-07-03T16:44:20.493Z,0.20
2018-07-03T16:46:48.902Z,0.37
2018-07-03T16:49:17.267Z,0.50
2018-07-03T16:51:45.665Z,0.30
2018-07-03T16:54:14.036Z,0.30
2018-07-03T16:56:42.462Z,0.20
2018-07-03T16:59:10.809Z,0.40
2018-07-03T17:01:39.286Z,0.42
2018-07-03T17:04:07.678Z,0.20
2018-07-03T17:06:36.061Z,0.40
2018-07-03T17:09:06.713Z,0.20
2018-07-03T17:11:35.116Z,0.37
2018-07-03T17:14:04.566Z,0.20
2018-07-03T17:16:32.973Z,0.45
2018-07-03T17:19:06.719Z,0.30
2018-07-03T17:21:35.134Z,0.30
2018-07-03T17:24:03.584Z,0.28
2018-07-03T17:26:31.957Z,0.30
2018-07-03T17:29:00.384Z,0.37
2018-07-03T17:31:28.805Z,0.20
2018-07-03T17:33:57.281Z,0.40
2018-07-03T17:36:25.635Z,0.50
2018-07-03T17:38:54.044Z,0.42
2018-07-03T17:41:33.854Z,0.50
2018-07-03T17:44:15.133Z,0.37
2018-07-03T17:46:43.536Z,0.25
2018-07-03T17:49:11.964Z,0.33
2018-07-03T17:51:40.349Z,0.80
2018-07-03T17:54:08.795Z,1.20
2018-07-03T17:56:37.724Z,0.82
2018-07-03T17:59:06.292Z,0.80
2018-07-03T18:01:34.889Z,0.40
2018-07-03T18:04:03.401Z,0.45
2018-07-03T18:06:31.835Z,0.33
2018-07-03T18:09:00.241Z,0.35
2018-07-03T18:11:28.665Z,1.20
2018-07-03T18:13:57.206Z,2.25
2018-07-03T18:16:25.647Z,1.07
2018-07-03T18:18:59.477Z,0.62
2018-07-03T18:21:27.879Z,0.50
2018-07-03T18:23:56.355Z,4.08
2018-07-03T18:26:24.781Z,1.85
2018-07-03T18:28:53.440Z,3.02
2018-07-03T18:31:21.685Z,0.95
2018-07-03T18:33:50.258Z,0.78
2018-07-03T18:36:18.704Z,1.30
2018-07-03T18:38:47.167Z,0.70
2018-07-03T18:41:15.583Z,0.72
2018-07-03T18:43:44.010Z,3.72
2018-07-03T18:46:12.544Z,1.10
2018-07-03T18:48:40.942Z,0.93
2018-07-03T18:51:09.086Z,1.02
2018-07-03T18:53:37.471Z,1.90
2018-07-03T18:56:06.192Z,1.42
2018-07-03T18:58:34.637Z,1.50
2018-07-03T19:01:03.043Z,1.17
2018-07-03T19:03:31.416Z,0.70
2018-07-03T19:05:59.846Z,0.72
2018-07-03T19:08:28.220Z,1.98
2018-07-03T19:10:56.660Z,2.15
2018-07-03T19:13:25.068Z,2.12
2018-07-03T19:15:53.506Z,1.70
2018-07-03T19:18:21.939Z,1.35
2018-07-03T19:20:50.345Z,2.35
2018-07-03T19:23:18.778Z,1.65
2018-07-03T19:25:47.205Z,2.83
2018-07-03T19:28:15.612Z,4.15
2018-07-03T19:30:44.152Z,3.37
2018-07-03T19:33:12.618Z,3.42
2018-07-03T19:35:41.029Z,4.78
2018-07-03T19:38:09.427Z,5.05
2018-07-03T19:40:37.908Z,3.75
2018-07-03T19:43:27.232Z,4.12
2018-07-03T19:45:56.251Z,1.98
2018-07-03T19:48:24.739Z,3.05
2018-07-03T19:50:53.792Z,1.85
2018-07-03T19:53:22.236Z,2.30
2018-07-03T19:55:52.451Z,1.57
2018-07-03T19:58:21.320Z,2.52
2018-07-03T20:00:50.814Z,5.67
2018-07-03T20:03:19.325Z,5.50
2018-07-03T20:05:47.788Z,5.05
2018-07-03T20:08:16.249Z,5.47
2018-07-03T20:10:44.769Z,1.65
2018-07-03T20:13:15.315Z,1.12
2018-07-03T20:15:43.701Z,1.65
2018-07-03T20:18:12.793Z,1.90
2018-07-03T20:20:41.180Z,3.90
2018-07-03T20:23:09.658Z,2.22
2018-07-03T20:25:38.678Z,1.98
2018-07-03T20:28:07.487Z,1.45
2018-07-03T20:30:35.998Z,2.37
2018-07-03T20:33:04.356Z,2.33
2018-07-03T20:35:32.805Z,7.00
2018-07-03T20:38:02.880Z,3.90
2018-07-03T20:40:38.903Z,2.08
2018-07-03T20:43:07.472Z,1.62
2018-07-03T20:45:35.851Z,1.17
2018-07-03T20:48:04.314Z,0.50
2018-07-03T20:50:32.675Z,0.30
2018-07-03T20:53:01.066Z,0.40
2018-07-03T20:55:29.455Z,0.47
2018-07-03T20:57:57.823Z,0.40
2018-07-03T21:00:26.209Z,0.45
2018-07-03T21:02:54.313Z,0.47
2018-07-03T21:05:22.710Z,0.30
2018-07-03T21:07:51.146Z,0.50
2018-07-03T21:10:19.508Z,0.55
2018-07-03T21:12:47.911Z,0.40
2018-07-03T21:15:16.279Z,0.60
2018-07-03T21:17:44.678Z,0.57
2018-07-03T21:20:13.007Z,0.50
2018-07-03T21:22:41.389Z,0.60
2018-07-03T21:25:09.813Z,0.30
2018-07-03T21:27:38.178Z,0.62
2018-07-03T21:30:09.620Z,0.70
2018-07-03T21:32:37.999Z,0.60
2018-07-03T21:35:06.464Z,0.80
2018-07-03T21:37:34.857Z,0.50
2018-07-03T21:40:03.365Z,0.50
2018-07-03T21:42:31.760Z,0.45
2018-07-03T21:45:00.170Z,0.60
2018-07-03T21:47:28.580Z,0.40
2018-07-03T21:49:56.945Z,0.85
2018-07-03T21:52:25.422Z,0.50
2018-07-03T21:54:53.839Z,0.62
2018-07-03T21:57:22.960Z,0.47
2018-07-03T21:59:51.419Z,0.50
2018-07-03T22:02:19.795Z,0.40
2018-07-03T22:04:48.164Z,0.40
2018-07-03T22:07:17.079Z,0.70
2018-07-03T22:09:45.471Z,0.60
2018-07-03T22:12:13.809Z,0.60
2018-07-03T22:14:42.739Z,0.50
2018-07-03T22:17:12.358Z,0.40
2018-07-03T22:19:41.256Z,0.82
2018-07-03T22:22:09.713Z,0.50
2018-07-03T22:24:38.119Z,0.57
2018-07-03T22:27:06.469Z,0.50
2018-07-03T22:29:34.845Z,0.55
2018-07-03T22:32:03.201Z,0.53
2018-07-03T22:34:31.569Z,0.40
2018-07-03T22:36:59.918Z,0.70
2018-07-03T22:39:28.360Z,0.50
2018-07-03T22:41:57.205Z,0.60
2018-07-03T22:44:25.595Z,0.68
2018-07-03T22:46:53.954Z,0.95
2018-07-03T22:49:22.310Z,0.85
2018-07-03T22:51:50.711Z,0.78
2018-07-03T22:54:19.037Z,0.82
2018-07-03T22:56:47.366Z,0.93
2018-07-03T22:59:15.741Z,0.70
2018-07-03T23:01:44.220Z,0.80
2018-07-03T23:04:12.605Z,0.80
2018-07-03T23:06:40.957Z,0.75
2018-07-03T23:09:09.325Z,0.90
2018-07-03T23:11:37.948Z,0.82
2018-07-03T23:14:06.292Z,0.78
2018-07-03T23:16:34.723Z,1.00
2018-07-03T23:19:03.100Z,0.60
2018-07-03T23:21:31.504Z,0.70
2018-07-03T23:23:59.894Z,0.80
2018-07-03T23:26:28.276Z,0.60
2018-07-03T23:28:56.664Z,0.78
2018-07-03T23:31:25.097Z,0.70
2018-07-03T23:33:53.414Z,0.72
2018-07-03T23:36:21.765Z,0.65
2018-07-03T23:38:50.128Z,0.40
2018-07-03T23:41:18.551Z,0.70
2018-07-03T23:43:46.904Z,0.68
2018-07-03T23:46:26.476Z,0.50
2018-07-03T23:49:06.212Z,0.50
2018-07-03T23:51:45.738Z,0.60
2018-07-03T23:54:25.323Z,0.50
2018-07-03T23:57:05.064Z,0.40
2018-07-03T23:59:44.600Z,0.50
